CFG197 LEPA-HEGN
Flight info
| Callsign | CFG197 |
|---|---|
| Flight time | 3h 42m |
| Altitude | 38000 |
| Route | MORSS DCT BAVON DCT ORKUM DCT ELSAG DCT ALG/N0468F370 DCT LEDRO DCT ADAMI DCT ADEXI/N0462F390 DCT OLLEK DCT ARLOS DCT SALUN N705 MMA P751 DASUM Y234 FYM M872 SEMRU W727 OBTAV L315 SOKOT SOKOT1A |
| Aircraft | A339/H-SADE1E2E3GHIJ3J5M1P2RWXY/LB2D1 |
Departure
| Time | 2026-05-05 15:00 |
|---|---|
| Airport | Palma de Mallorca Airport (LEPA) |
Arrival
| Time | 2026-05-05 18:43 |
|---|---|
| Airport | Hurghada International Airport (HEGN) |
| Time | Latitude | Longitude | Altitude | Speed | Heading |
|---|---|---|---|---|---|
| 2026-05-05 14:37 | 39.54650 | 2.73438 | 42 ft | 0 kts | 253° |
| 2026-05-05 14:47 | 39.54650 | 2.73439 | 41 ft | 0 kts | 253° |
| 2026-05-05 14:47 | 39.54652 | 2.73447 | 41 ft | 1 kts | 253° |
| 2026-05-05 14:47 | 39.54655 | 2.73460 | 41 ft | 3 kts | 246° |
| 2026-05-05 14:48 | 39.54664 | 2.73484 | 36 ft | 3 kts | 224° |
| 2026-05-05 14:48 | 39.54680 | 2.73504 | 37 ft | 3 kts | 170° |
| 2026-05-05 14:48 | 39.54687 | 2.73505 | 37 ft | 0 kts | 148° |
| 2026-05-05 14:51 | 39.54685 | 2.73506 | 37 ft | 2 kts | 148° |
| 2026-05-05 14:51 | 39.54680 | 2.73510 | 37 ft | 0 kts | 149° |
| 2026-05-05 14:52 | 39.54676 | 2.73513 | 38 ft | 6 kts | 149° |
| 2026-05-05 14:52 | 39.54621 | 2.73532 | 41 ft | 7 kts | 195° |
| 2026-05-05 14:52 | 39.54591 | 2.73525 | 42 ft | 1 kts | 169° |
| 2026-05-05 14:53 | 39.54577 | 2.73606 | 39 ft | 11 kts | 96° |
| 2026-05-05 14:53 | 39.54571 | 2.73700 | 41 ft | 8 kts | 73° |
| 2026-05-05 14:53 | 39.54621 | 2.73786 | 40 ft | 19 kts | 51° |
| 2026-05-05 14:53 | 39.54697 | 2.73936 | 40 ft | 20 kts | 59° |
| 2026-05-05 14:54 | 39.54767 | 2.74078 | 39 ft | 18 kts | 57° |
| 2026-05-05 14:54 | 39.54828 | 2.74212 | 38 ft | 17 kts | 62° |
| 2026-05-05 14:54 | 39.54885 | 2.74335 | 37 ft | 15 kts | 57° |
| 2026-05-05 14:54 | 39.54943 | 2.74452 | 36 ft | 17 kts | 57° |
| 2026-05-05 14:55 | 39.55021 | 2.74615 | 35 ft | 23 kts | 59° |
| 2026-05-05 14:55 | 39.55101 | 2.74791 | 34 ft | 22 kts | 60° |
| 2026-05-05 14:55 | 39.55178 | 2.74951 | 32 ft | 20 kts | 57° |
| 2026-05-05 14:55 | 39.55249 | 2.75098 | 33 ft | 18 kts | 58° |
| 2026-05-05 14:56 | 39.55313 | 2.75234 | 32 ft | 17 kts | 59° |
| 2026-05-05 14:56 | 39.55372 | 2.75362 | 31 ft | 16 kts | 59° |
| 2026-05-05 14:56 | 39.55426 | 2.75480 | 30 ft | 15 kts | 59° |
| 2026-05-05 14:56 | 39.55477 | 2.75591 | 29 ft | 14 kts | 59° |
| 2026-05-05 14:57 | 39.55525 | 2.75694 | 29 ft | 13 kts | 59° |
| 2026-05-05 14:57 | 39.55568 | 2.75788 | 28 ft | 12 kts | 59° |
| 2026-05-05 14:57 | 39.55607 | 2.75873 | 27 ft | 10 kts | 58° |
| 2026-05-05 14:57 | 39.55642 | 2.75945 | 27 ft | 9 kts | 58° |
| 2026-05-05 14:58 | 39.55640 | 2.76006 | 26 ft | 6 kts | 117° |
| 2026-05-05 14:58 | 39.55622 | 2.76036 | 27 ft | 1 kts | 130° |
| 2026-05-05 14:58 | 39.55617 | 2.76042 | 27 ft | 3 kts | 131° |
| 2026-05-05 14:58 | 39.55614 | 2.76047 | 26 ft | 1 kts | 131° |
| 2026-05-05 14:59 | 39.55586 | 2.76078 | 27 ft | 6 kts | 145° |
| 2026-05-05 14:59 | 39.55560 | 2.76101 | 27 ft | 2 kts | 147° |
| 2026-05-05 14:59 | 39.55548 | 2.76104 | 27 ft | 8 kts | 166° |
| 2026-05-05 14:59 | 39.55517 | 2.76088 | 27 ft | 13 kts | 206° |
| 2026-05-05 15:00 | 39.55323 | 2.75712 | 30 ft | 86 kts | 240° |
| 2026-05-05 15:00 | 39.55056 | 2.75154 | 34 ft | 128 kts | 237° |
| 2026-05-05 15:00 | 39.54307 | 2.73528 | 202 ft | 178 kts | 238° |
| 2026-05-05 15:00 | 39.53653 | 2.72099 | 722 ft | 191 kts | 239° |
| 2026-05-05 15:01 | 39.52937 | 2.70581 | 1313 ft | 204 kts | 237° |
| 2026-05-05 15:01 | 39.52127 | 2.68965 | 1749 ft | 221 kts | 236° |
| 2026-05-05 15:01 | 39.51236 | 2.67276 | 2277 ft | 232 kts | 235° |
| 2026-05-05 15:01 | 39.50280 | 2.65562 | 2838 ft | 237 kts | 234° |
| 2026-05-05 15:02 | 39.49288 | 2.63835 | 3406 ft | 241 kts | 234° |
| 2026-05-05 15:02 | 39.48246 | 2.62121 | 3978 ft | 244 kts | 232° |
| 2026-05-05 15:02 | 39.47139 | 2.60428 | 4595 ft | 248 kts | 230° |
| 2026-05-05 15:02 | 39.45901 | 2.58799 | 5045 ft | 258 kts | 223° |
| 2026-05-05 15:03 | 39.44483 | 2.57364 | 5693 ft | 261 kts | 217° |
| 2026-05-05 15:03 | 39.42916 | 2.56185 | 6326 ft | 263 kts | 202° |
| 2026-05-05 15:03 | 39.41086 | 2.55898 | 6917 ft | 272 kts | 176° |
| 2026-05-05 15:03 | 39.39287 | 2.56711 | 7472 ft | 281 kts | 150° |
| 2026-05-05 15:04 | 39.37884 | 2.58507 | 8063 ft | 291 kts | 125° |
| 2026-05-05 15:04 | 39.37169 | 2.60974 | 8639 ft | 300 kts | 100° |
| 2026-05-05 15:04 | 39.37112 | 2.62775 | 9029 ft | 305 kts | 89° |
| 2026-05-05 15:04 | 39.37309 | 2.65515 | 9624 ft | 308 kts | 85° |
| 2026-05-05 15:05 | 39.37725 | 2.71165 | 10269 ft | 331 kts | 89° |
| 2026-05-05 15:05 | 39.37858 | 2.75269 | 10485 ft | 352 kts | 90° |
| 2026-05-05 15:05 | 39.37899 | 2.77392 | 10639 ft | 360 kts | 91° |
| 2026-05-05 15:06 | 39.37948 | 2.80644 | 11111 ft | 364 kts | 91° |
| 2026-05-05 15:06 | 39.37994 | 2.83936 | 11597 ft | 368 kts | 91° |
| 2026-05-05 15:06 | 39.38041 | 2.87265 | 11838 ft | 372 kts | 91° |
| 2026-05-05 15:06 | 39.38090 | 2.90601 | 11905 ft | 372 kts | 91° |
| 2026-05-05 15:07 | 39.38138 | 2.93938 | 11908 ft | 371 kts | 91° |
| 2026-05-05 15:07 | 39.38186 | 2.97283 | 11971 ft | 374 kts | 91° |
| 2026-05-05 15:07 | 39.38233 | 3.00661 | 12440 ft | 376 kts | 91° |
| 2026-05-05 15:07 | 39.38279 | 3.04031 | 12952 ft | 379 kts | 91° |
| 2026-05-05 15:08 | 39.38324 | 3.07455 | 13458 ft | 382 kts | 91° |
| 2026-05-05 15:08 | 39.38369 | 3.10908 | 13930 ft | 385 kts | 91° |
| 2026-05-05 15:08 | 39.38412 | 3.14377 | 14364 ft | 389 kts | 91° |
| 2026-05-05 15:08 | 39.38454 | 3.17876 | 14796 ft | 392 kts | 91° |
| 2026-05-05 15:09 | 39.38496 | 3.21426 | 15252 ft | 395 kts | 91° |
| 2026-05-05 15:09 | 39.38537 | 3.24990 | 15666 ft | 399 kts | 91° |
| 2026-05-05 15:09 | 39.38577 | 3.28592 | 16104 ft | 402 kts | 92° |
| 2026-05-05 15:09 | 39.38618 | 3.32217 | 16533 ft | 405 kts | 92° |
| 2026-05-05 15:10 | 39.38657 | 3.35870 | 16963 ft | 408 kts | 91° |
| 2026-05-05 15:10 | 39.38695 | 3.39551 | 17394 ft | 411 kts | 92° |
| 2026-05-05 15:10 | 39.38733 | 3.43268 | 17805 ft | 415 kts | 92° |
| 2026-05-05 15:10 | 39.38770 | 3.47007 | 18225 ft | 418 kts | 92° |
| 2026-05-05 15:11 | 39.38806 | 3.50782 | 18600 ft | 421 kts | 92° |
| 2026-05-05 15:11 | 39.38841 | 3.54578 | 18967 ft | 424 kts | 92° |
| 2026-05-05 15:11 | 39.38876 | 3.58413 | 19340 ft | 427 kts | 92° |
| 2026-05-05 15:11 | 39.38910 | 3.62263 | 19709 ft | 431 kts | 92° |
| 2026-05-05 15:12 | 39.38942 | 3.66149 | 20094 ft | 434 kts | 92° |
| 2026-05-05 15:12 | 39.38974 | 3.70066 | 20460 ft | 437 kts | 92° |
| 2026-05-05 15:12 | 39.39003 | 3.74031 | 20660 ft | 445 kts | 92° |
| 2026-05-05 15:12 | 39.39032 | 3.78084 | 20788 ft | 456 kts | 92° |
| 2026-05-05 15:13 | 39.39059 | 3.82229 | 20892 ft | 466 kts | 92° |
| 2026-05-05 15:13 | 39.39087 | 3.86460 | 21007 ft | 475 kts | 92° |
| 2026-05-05 15:13 | 39.39114 | 3.90767 | 21222 ft | 482 kts | 92° |
| 2026-05-05 15:13 | 39.39141 | 3.95055 | 21564 ft | 485 kts | 92° |
| 2026-05-05 15:14 | 39.39167 | 3.99433 | 21918 ft | 489 kts | 92° |
| 2026-05-05 15:14 | 39.39191 | 4.03845 | 22263 ft | 492 kts | 92° |
| 2026-05-05 15:14 | 39.39213 | 4.08283 | 22605 ft | 495 kts | 92° |
| 2026-05-05 15:14 | 39.39232 | 4.12747 | 22953 ft | 499 kts | 93° |
| 2026-05-05 15:15 | 39.39251 | 4.17245 | 23304 ft | 502 kts | 93° |
| 2026-05-05 15:15 | 39.39266 | 4.21766 | 23618 ft | 505 kts | 92° |
| 2026-05-05 15:15 | 39.39281 | 4.26311 | 23977 ft | 506 kts | 92° |
| 2026-05-05 15:15 | 39.39294 | 4.30867 | 24307 ft | 508 kts | 93° |
| 2026-05-05 15:16 | 39.39306 | 4.35443 | 24626 ft | 510 kts | 93° |
| 2026-05-05 15:16 | 39.39317 | 4.40030 | 24943 ft | 512 kts | 93° |
| 2026-05-05 15:16 | 39.39325 | 4.44640 | 25251 ft | 514 kts | 93° |
| 2026-05-05 15:16 | 39.39331 | 4.49271 | 25556 ft | 516 kts | 93° |
| 2026-05-05 15:17 | 39.39336 | 4.53915 | 25855 ft | 518 kts | 94° |
| 2026-05-05 15:17 | 39.39338 | 4.58579 | 26153 ft | 519 kts | 94° |
| 2026-05-05 15:17 | 39.39339 | 4.63253 | 26476 ft | 520 kts | 94° |
| 2026-05-05 15:17 | 39.39338 | 4.67939 | 26747 ft | 523 kts | 94° |
| 2026-05-05 15:18 | 39.39335 | 4.72649 | 27027 ft | 525 kts | 94° |
| 2026-05-05 15:18 | 39.39330 | 4.77375 | 27315 ft | 527 kts | 94° |
| 2026-05-05 15:18 | 39.39323 | 4.82112 | 27582 ft | 529 kts | 94° |
| 2026-05-05 15:18 | 39.39314 | 4.86871 | 27823 ft | 530 kts | 94° |
| 2026-05-05 15:19 | 39.39303 | 4.91641 | 28044 ft | 532 kts | 94° |
| 2026-05-05 15:19 | 39.39291 | 4.96426 | 28223 ft | 533 kts | 94° |
| 2026-05-05 15:19 | 39.39278 | 5.01221 | 28468 ft | 533 kts | 95° |
| 2026-05-05 15:19 | 39.39261 | 5.06019 | 28600 ft | 534 kts | 95° |
| 2026-05-05 15:20 | 39.39242 | 5.10760 | 28734 ft | 535 kts | 95° |
| 2026-05-05 15:20 | 39.39221 | 5.15578 | 28849 ft | 536 kts | 95° |
| 2026-05-05 15:20 | 39.39198 | 5.20401 | 28960 ft | 537 kts | 95° |
| 2026-05-05 15:21 | 39.39146 | 5.30060 | 29127 ft | 538 kts | 95° |
| 2026-05-05 15:21 | 39.39086 | 5.39734 | 29289 ft | 538 kts | 95° |
| 2026-05-05 15:22 | 39.39018 | 5.49426 | 29396 ft | 539 kts | 95° |
| 2026-05-05 15:22 | 39.38942 | 5.59117 | 29476 ft | 540 kts | 95° |
| 2026-05-05 15:23 | 39.38857 | 5.68822 | 29563 ft | 540 kts | 95° |
| 2026-05-05 15:23 | 39.38763 | 5.78531 | 29633 ft | 540 kts | 95° |
| 2026-05-05 15:24 | 39.38662 | 5.88239 | 29702 ft | 540 kts | 95° |
| 2026-05-05 15:24 | 39.38554 | 5.97956 | 29759 ft | 541 kts | 95° |
| 2026-05-05 15:25 | 39.38438 | 6.07673 | 29831 ft | 541 kts | 95° |
| 2026-05-05 15:25 | 39.38377 | 6.12519 | 29954 ft | 538 kts | 95° |
| 2026-05-05 15:25 | 39.38314 | 6.17356 | 29996 ft | 537 kts | 95° |
| 2026-05-05 15:26 | 39.38182 | 6.27006 | 30066 ft | 537 kts | 95° |
| 2026-05-05 15:26 | 39.38042 | 6.36663 | 30120 ft | 537 kts | 95° |
| 2026-05-05 15:27 | 39.37894 | 6.46313 | 30181 ft | 537 kts | 95° |
| 2026-05-05 15:27 | 39.37736 | 6.55967 | 30184 ft | 538 kts | 95° |
| 2026-05-05 15:28 | 39.37572 | 6.65635 | 30254 ft | 538 kts | 95° |
| 2026-05-05 15:28 | 39.37401 | 6.75295 | 30320 ft | 538 kts | 95° |
| 2026-05-05 15:29 | 39.37221 | 6.84956 | 30350 ft | 538 kts | 95° |
| 2026-05-05 15:29 | 39.37031 | 6.94633 | 30380 ft | 539 kts | 95° |
| 2026-05-05 15:30 | 39.36838 | 7.04198 | 30406 ft | 541 kts | 95° |
| 2026-05-05 15:30 | 39.36630 | 7.14037 | 30450 ft | 541 kts | 95° |
| 2026-05-05 15:31 | 39.36417 | 7.23752 | 30510 ft | 541 kts | 95° |
| 2026-05-05 15:31 | 39.36197 | 7.33409 | 30565 ft | 541 kts | 95° |
| 2026-05-05 15:32 | 39.35967 | 7.43189 | 30621 ft | 541 kts | 95° |
| 2026-05-05 15:32 | 39.35729 | 7.52904 | 30678 ft | 541 kts | 96° |
| 2026-05-05 15:33 | 39.35485 | 7.62546 | 30723 ft | 541 kts | 95° |
| 2026-05-05 15:33 | 39.35231 | 7.72255 | 30778 ft | 541 kts | 95° |
| 2026-05-05 15:34 | 39.34971 | 7.81959 | 30836 ft | 541 kts | 95° |
| 2026-05-05 15:34 | 39.34702 | 7.91661 | 30895 ft | 541 kts | 95° |
| 2026-05-05 15:35 | 39.34424 | 8.01366 | 31005 ft | 538 kts | 95° |
| 2026-05-05 15:35 | 39.34141 | 8.11023 | 31080 ft | 538 kts | 95° |
| 2026-05-05 15:36 | 39.33849 | 8.20681 | 31141 ft | 538 kts | 95° |
| 2026-05-05 15:36 | 39.33548 | 8.30339 | 31193 ft | 538 kts | 95° |
| 2026-05-05 15:37 | 39.33241 | 8.39978 | 31307 ft | 536 kts | 95° |
| 2026-05-05 15:37 | 39.32923 | 8.49603 | 31334 ft | 537 kts | 95° |
| 2026-05-05 15:38 | 39.32605 | 8.59150 | 31440 ft | 536 kts | 95° |
| 2026-05-05 15:38 | 39.32274 | 8.68763 | 31504 ft | 536 kts | 95° |
| 2026-05-05 15:39 | 39.31936 | 8.78375 | 31530 ft | 536 kts | 95° |
| 2026-05-05 15:39 | 39.31590 | 8.87993 | 31605 ft | 536 kts | 95° |
| 2026-05-05 15:40 | 39.31236 | 8.97608 | 31665 ft | 536 kts | 95° |
| 2026-05-05 15:40 | 39.30874 | 9.07221 | 31725 ft | 536 kts | 96° |
| 2026-05-05 15:41 | 39.30501 | 9.16825 | 31773 ft | 536 kts | 95° |
| 2026-05-05 15:41 | 39.30124 | 9.26435 | 31836 ft | 536 kts | 95° |
| 2026-05-05 15:42 | 39.29740 | 9.36032 | 31911 ft | 535 kts | 95° |
| 2026-05-05 15:42 | 39.29349 | 9.45627 | 31988 ft | 535 kts | 95° |
| 2026-05-05 15:43 | 39.28957 | 9.55200 | 32052 ft | 534 kts | 95° |
| 2026-05-05 15:43 | 39.28302 | 9.64721 | 32100 ft | 531 kts | 104° |
| 2026-05-05 15:44 | 39.25795 | 9.73543 | 32168 ft | 520 kts | 123° |
| 2026-05-05 15:44 | 39.22136 | 9.81582 | 32209 ft | 520 kts | 124° |
| 2026-05-05 15:45 | 39.18520 | 9.89648 | 32258 ft | 520 kts | 124° |
| 2026-05-05 15:45 | 39.14896 | 9.97718 | 32305 ft | 520 kts | 124° |
| 2026-05-05 15:46 | 39.11277 | 10.05749 | 32431 ft | 518 kts | 124° |
| 2026-05-05 15:46 | 39.07652 | 10.13767 | 32498 ft | 518 kts | 124° |
| 2026-05-05 15:47 | 39.04022 | 10.21776 | 32532 ft | 518 kts | 124° |
| 2026-05-05 15:47 | 39.00385 | 10.29780 | 32595 ft | 518 kts | 124° |
| 2026-05-05 15:47 | 38.98577 | 10.33754 | 32966 ft | 511 kts | 124° |
| 2026-05-05 15:48 | 38.96791 | 10.37678 | 33334 ft | 506 kts | 124° |
| 2026-05-05 15:48 | 38.95015 | 10.41572 | 33543 ft | 505 kts | 124° |
| 2026-05-05 15:48 | 38.93238 | 10.45459 | 33726 ft | 505 kts | 124° |
| 2026-05-05 15:48 | 38.91455 | 10.49353 | 33905 ft | 505 kts | 124° |
| 2026-05-05 15:49 | 38.89677 | 10.53234 | 34069 ft | 504 kts | 124° |
| 2026-05-05 15:49 | 38.87899 | 10.57111 | 34217 ft | 504 kts | 124° |
| 2026-05-05 15:49 | 38.86119 | 10.60986 | 34344 ft | 503 kts | 124° |
| 2026-05-05 15:49 | 38.84344 | 10.64847 | 34550 ft | 502 kts | 124° |
| 2026-05-05 15:50 | 38.82571 | 10.68698 | 34682 ft | 502 kts | 124° |
| 2026-05-05 15:50 | 38.80794 | 10.72554 | 34833 ft | 502 kts | 124° |
| 2026-05-05 15:50 | 38.79019 | 10.76404 | 34954 ft | 502 kts | 124° |
| 2026-05-05 15:50 | 38.77841 | 10.78954 | 35058 ft | 502 kts | 124° |
| 2026-05-05 15:51 | 38.76064 | 10.82798 | 35192 ft | 502 kts | 124° |
| 2026-05-05 15:51 | 38.74287 | 10.86637 | 35331 ft | 501 kts | 124° |
| 2026-05-05 15:51 | 38.72505 | 10.90484 | 35467 ft | 501 kts | 124° |
| 2026-05-05 15:51 | 38.70680 | 10.94274 | 35597 ft | 499 kts | 128° |
| 2026-05-05 15:52 | 38.68628 | 10.97844 | 35711 ft | 496 kts | 133° |
| 2026-05-05 15:52 | 38.66435 | 11.01249 | 35841 ft | 496 kts | 133° |
| 2026-05-05 15:52 | 38.64251 | 11.04663 | 35975 ft | 496 kts | 133° |
| 2026-05-05 15:52 | 38.62073 | 11.08081 | 36104 ft | 496 kts | 133° |
| 2026-05-05 15:53 | 38.59896 | 11.11505 | 36232 ft | 496 kts | 133° |
| 2026-05-05 15:53 | 38.55540 | 11.18338 | 36419 ft | 496 kts | 133° |
| 2026-05-05 15:53 | 38.53358 | 11.21757 | 36565 ft | 496 kts | 133° |
| 2026-05-05 15:54 | 38.51177 | 11.25169 | 36673 ft | 496 kts | 133° |
| 2026-05-05 15:54 | 38.48994 | 11.28579 | 36788 ft | 496 kts | 133° |
| 2026-05-05 15:54 | 38.46840 | 11.31940 | 36906 ft | 496 kts | 133° |
| 2026-05-05 15:54 | 38.44657 | 11.35343 | 37019 ft | 496 kts | 133° |
| 2026-05-05 15:55 | 38.42476 | 11.38741 | 37132 ft | 495 kts | 133° |
| 2026-05-05 15:55 | 38.40289 | 11.42143 | 37253 ft | 495 kts | 133° |
| 2026-05-05 15:55 | 38.38108 | 11.45533 | 37357 ft | 495 kts | 133° |
| 2026-05-05 15:55 | 38.35922 | 11.48926 | 37483 ft | 495 kts | 133° |
| 2026-05-05 15:56 | 38.33737 | 11.52316 | 37594 ft | 495 kts | 133° |
| 2026-05-05 15:56 | 38.29372 | 11.59075 | 37834 ft | 494 kts | 133° |
| 2026-05-05 15:57 | 38.25005 | 11.65823 | 38002 ft | 494 kts | 133° |
| 2026-05-05 15:57 | 38.20642 | 11.72551 | 38001 ft | 492 kts | 133° |
| 2026-05-05 15:58 | 38.16277 | 11.79268 | 38006 ft | 493 kts | 133° |
| 2026-05-05 15:58 | 38.11910 | 11.85973 | 38007 ft | 493 kts | 133° |
| 2026-05-05 15:59 | 38.07539 | 11.92671 | 38015 ft | 493 kts | 133° |
| 2026-05-05 15:59 | 38.03164 | 11.99362 | 38007 ft | 492 kts | 133° |
| 2026-05-05 16:00 | 37.98786 | 12.06042 | 38009 ft | 492 kts | 133° |
| 2026-05-05 16:00 | 37.94405 | 12.12713 | 38017 ft | 493 kts | 133° |
| 2026-05-05 16:01 | 37.90044 | 12.19342 | 38047 ft | 493 kts | 133° |
| 2026-05-05 16:01 | 37.85624 | 12.26045 | 38054 ft | 493 kts | 133° |
| 2026-05-05 16:02 | 37.81254 | 12.32660 | 38061 ft | 493 kts | 133° |
| 2026-05-05 16:02 | 37.76848 | 12.39316 | 38064 ft | 493 kts | 133° |
| 2026-05-05 16:03 | 37.72436 | 12.45966 | 38054 ft | 494 kts | 133° |
| 2026-05-05 16:03 | 37.68019 | 12.52612 | 38054 ft | 494 kts | 133° |
| 2026-05-05 16:04 | 37.63592 | 12.59258 | 38050 ft | 494 kts | 133° |
| 2026-05-05 16:04 | 37.59173 | 12.65879 | 38047 ft | 497 kts | 133° |
| 2026-05-05 16:05 | 37.54704 | 12.72559 | 38048 ft | 500 kts | 133° |
| 2026-05-05 16:05 | 37.50214 | 12.79259 | 38051 ft | 501 kts | 133° |
| 2026-05-05 16:06 | 37.45707 | 12.85969 | 38050 ft | 503 kts | 133° |
| 2026-05-05 16:06 | 37.41185 | 12.92690 | 38052 ft | 503 kts | 133° |
| 2026-05-05 16:07 | 37.36652 | 12.99415 | 38053 ft | 504 kts | 133° |
| 2026-05-05 16:07 | 37.32424 | 13.06447 | 38033 ft | 507 kts | 126° |
| 2026-05-05 16:08 | 37.28551 | 13.13820 | 38030 ft | 507 kts | 126° |
| 2026-05-05 16:08 | 37.24647 | 13.21195 | 38034 ft | 507 kts | 126° |
| 2026-05-05 16:09 | 37.20725 | 13.28563 | 38044 ft | 507 kts | 126° |
| 2026-05-05 16:09 | 37.16825 | 13.35869 | 38044 ft | 507 kts | 126° |
| 2026-05-05 16:10 | 37.12894 | 13.43217 | 38039 ft | 508 kts | 126° |
| 2026-05-05 16:10 | 37.08959 | 13.50557 | 38038 ft | 508 kts | 126° |
| 2026-05-05 16:11 | 37.05013 | 13.57900 | 38043 ft | 508 kts | 126° |
| 2026-05-05 16:12 | 36.97107 | 13.72569 | 38044 ft | 508 kts | 126° |
| 2026-05-05 16:13 | 36.87195 | 13.90866 | 38032 ft | 509 kts | 126° |
| 2026-05-05 16:13 | 36.83214 | 13.98187 | 38043 ft | 510 kts | 126° |
| 2026-05-05 16:14 | 36.75232 | 14.12818 | 38050 ft | 510 kts | 126° |
| 2026-05-05 16:15 | 36.67232 | 14.27421 | 38040 ft | 512 kts | 126° |
| 2026-05-05 16:16 | 36.59162 | 14.42086 | 38024 ft | 513 kts | 126° |
| 2026-05-05 16:17 | 36.53138 | 14.53015 | 38046 ft | 514 kts | 124° |
| 2026-05-05 16:18 | 36.49888 | 14.60932 | 38048 ft | 516 kts | 111° |
| 2026-05-05 16:18 | 36.48780 | 14.65179 | 38052 ft | 517 kts | 105° |
| 2026-05-05 16:19 | 36.46379 | 14.78247 | 38054 ft | 517 kts | 103° |
| 2026-05-05 16:19 | 36.43956 | 14.91317 | 38053 ft | 518 kts | 103° |
| 2026-05-05 16:20 | 36.40701 | 15.08778 | 38053 ft | 520 kts | 103° |
| 2026-05-05 16:22 | 36.36575 | 15.30632 | 38054 ft | 521 kts | 103° |
| 2026-05-05 16:23 | 36.33238 | 15.48130 | 38065 ft | 522 kts | 103° |
| 2026-05-05 16:23 | 36.30714 | 15.61268 | 38070 ft | 522 kts | 103° |
| 2026-05-05 16:24 | 36.29022 | 15.70022 | 38067 ft | 522 kts | 103° |
| 2026-05-05 16:25 | 36.26474 | 15.83152 | 38072 ft | 523 kts | 103° |
| 2026-05-05 16:25 | 36.23908 | 15.96286 | 38076 ft | 523 kts | 103° |
| 2026-05-05 16:26 | 36.20464 | 16.13782 | 38074 ft | 523 kts | 103° |
| 2026-05-05 16:27 | 36.18734 | 16.22521 | 38083 ft | 523 kts | 103° |
| 2026-05-05 16:27 | 36.16995 | 16.31268 | 38082 ft | 523 kts | 103° |
| 2026-05-05 16:28 | 36.15261 | 16.39951 | 38080 ft | 523 kts | 103° |
| 2026-05-05 16:28 | 36.13509 | 16.48691 | 38080 ft | 523 kts | 103° |
| 2026-05-05 16:29 | 36.11751 | 16.57426 | 38083 ft | 524 kts | 103° |
| 2026-05-05 16:29 | 36.09986 | 16.66158 | 38086 ft | 524 kts | 103° |
| 2026-05-05 16:30 | 36.08214 | 16.74887 | 38088 ft | 524 kts | 103° |
| 2026-05-05 16:30 | 36.06432 | 16.83628 | 38092 ft | 524 kts | 103° |
| 2026-05-05 16:31 | 36.04647 | 16.92357 | 38089 ft | 524 kts | 103° |
| 2026-05-05 16:31 | 36.02856 | 17.01078 | 38090 ft | 524 kts | 103° |
| 2026-05-05 16:32 | 36.01058 | 17.09797 | 38093 ft | 524 kts | 104° |
| 2026-05-05 16:32 | 35.99255 | 17.18508 | 38093 ft | 524 kts | 104° |
| 2026-05-05 16:33 | 35.97445 | 17.27217 | 38095 ft | 524 kts | 104° |
| 2026-05-05 16:33 | 35.95629 | 17.35917 | 38076 ft | 524 kts | 104° |
| 2026-05-05 16:34 | 35.93806 | 17.44619 | 38087 ft | 525 kts | 104° |
| 2026-05-05 16:34 | 35.91983 | 17.53286 | 38089 ft | 525 kts | 104° |
| 2026-05-05 16:35 | 35.90142 | 17.62009 | 38094 ft | 525 kts | 104° |
| 2026-05-05 16:35 | 35.88295 | 17.70723 | 38096 ft | 526 kts | 104° |
| 2026-05-05 16:36 | 35.86438 | 17.79452 | 38098 ft | 526 kts | 104° |
| 2026-05-05 16:36 | 35.84576 | 17.88173 | 38096 ft | 526 kts | 104° |
| 2026-05-05 16:37 | 35.82704 | 17.96903 | 38101 ft | 526 kts | 104° |
| 2026-05-05 16:37 | 35.80829 | 18.05616 | 38102 ft | 527 kts | 104° |
| 2026-05-05 16:38 | 35.78946 | 18.14329 | 38104 ft | 527 kts | 104° |
| 2026-05-05 16:38 | 35.77056 | 18.23047 | 38108 ft | 527 kts | 104° |
| 2026-05-05 16:39 | 35.75159 | 18.31760 | 38106 ft | 527 kts | 104° |
| 2026-05-05 16:39 | 35.73257 | 18.40465 | 38105 ft | 527 kts | 104° |
| 2026-05-05 16:40 | 35.71347 | 18.49171 | 38104 ft | 528 kts | 104° |
| 2026-05-05 16:40 | 35.69430 | 18.57879 | 38105 ft | 528 kts | 104° |
| 2026-05-05 16:41 | 35.67830 | 18.65125 | 38110 ft | 528 kts | 104° |
| 2026-05-05 16:41 | 35.65899 | 18.73836 | 38108 ft | 528 kts | 104° |
| 2026-05-05 16:42 | 35.63960 | 18.82546 | 38109 ft | 528 kts | 104° |
| 2026-05-05 16:42 | 35.62014 | 18.91258 | 38110 ft | 529 kts | 104° |
| 2026-05-05 16:43 | 35.60061 | 18.99972 | 38106 ft | 529 kts | 104° |
| 2026-05-05 16:43 | 35.58104 | 19.08671 | 38110 ft | 529 kts | 104° |
| 2026-05-05 16:44 | 35.56138 | 19.17377 | 38108 ft | 529 kts | 104° |
| 2026-05-05 16:44 | 35.54162 | 19.26092 | 38109 ft | 530 kts | 104° |
| 2026-05-05 16:45 | 35.52181 | 19.34801 | 38114 ft | 530 kts | 104° |
| 2026-05-05 16:45 | 35.50193 | 19.43509 | 38115 ft | 530 kts | 104° |
| 2026-05-05 16:46 | 35.48198 | 19.52215 | 38106 ft | 531 kts | 104° |
| 2026-05-05 16:46 | 35.46193 | 19.60933 | 38111 ft | 531 kts | 104° |
| 2026-05-05 16:47 | 35.44182 | 19.69646 | 38113 ft | 531 kts | 105° |
| 2026-05-05 16:47 | 35.42164 | 19.78358 | 38115 ft | 531 kts | 105° |
| 2026-05-05 16:48 | 35.40150 | 19.87021 | 38107 ft | 532 kts | 105° |
| 2026-05-05 16:48 | 35.38114 | 19.95751 | 38115 ft | 533 kts | 105° |
| 2026-05-05 16:49 | 35.36070 | 20.04477 | 38116 ft | 533 kts | 105° |
| 2026-05-05 16:49 | 35.34021 | 20.13200 | 38118 ft | 533 kts | 105° |
| 2026-05-05 16:50 | 35.31961 | 20.21931 | 38118 ft | 534 kts | 105° |
| 2026-05-05 16:50 | 35.29895 | 20.30665 | 38120 ft | 534 kts | 105° |
| 2026-05-05 16:51 | 35.27821 | 20.39397 | 38120 ft | 534 kts | 105° |
| 2026-05-05 16:51 | 35.25741 | 20.48125 | 38128 ft | 535 kts | 105° |
| 2026-05-05 16:52 | 35.23650 | 20.56860 | 38117 ft | 535 kts | 105° |
| 2026-05-05 16:52 | 35.21555 | 20.65592 | 38117 ft | 535 kts | 105° |
| 2026-05-05 16:53 | 35.19451 | 20.74326 | 38121 ft | 536 kts | 105° |
| 2026-05-05 16:53 | 35.17340 | 20.83058 | 38115 ft | 536 kts | 105° |
| 2026-05-05 16:54 | 35.15221 | 20.91796 | 38118 ft | 536 kts | 105° |
| 2026-05-05 16:54 | 35.13093 | 21.00539 | 38121 ft | 537 kts | 105° |
| 2026-05-05 16:55 | 35.10959 | 21.09276 | 38119 ft | 537 kts | 105° |
| 2026-05-05 16:55 | 35.08818 | 21.18010 | 38116 ft | 538 kts | 105° |
| 2026-05-05 16:56 | 35.06682 | 21.26697 | 38109 ft | 538 kts | 105° |
| 2026-05-05 16:56 | 35.04525 | 21.35437 | 38114 ft | 538 kts | 105° |
| 2026-05-05 16:57 | 35.02347 | 21.44230 | 38116 ft | 538 kts | 105° |
| 2026-05-05 16:57 | 35.00189 | 21.52917 | 38118 ft | 538 kts | 105° |
| 2026-05-05 16:58 | 34.98011 | 21.61652 | 38118 ft | 539 kts | 105° |
| 2026-05-05 16:58 | 34.95826 | 21.70386 | 38120 ft | 539 kts | 105° |
| 2026-05-05 16:59 | 34.93633 | 21.79124 | 38126 ft | 539 kts | 105° |
| 2026-05-05 16:59 | 34.91431 | 21.87862 | 38118 ft | 539 kts | 105° |
| 2026-05-05 17:00 | 34.89225 | 21.96593 | 38119 ft | 539 kts | 105° |
| 2026-05-05 17:00 | 34.87011 | 22.05323 | 38119 ft | 540 kts | 105° |
| 2026-05-05 17:01 | 34.84791 | 22.14049 | 38133 ft | 540 kts | 105° |
| 2026-05-05 17:01 | 34.82561 | 22.22784 | 38124 ft | 540 kts | 105° |
| 2026-05-05 17:02 | 34.80326 | 22.31510 | 38115 ft | 540 kts | 105° |
| 2026-05-05 17:02 | 34.78084 | 22.40236 | 38112 ft | 540 kts | 105° |
| 2026-05-05 17:03 | 34.75836 | 22.48955 | 38117 ft | 540 kts | 105° |
| 2026-05-05 17:03 | 34.73582 | 22.57667 | 38122 ft | 540 kts | 105° |
| 2026-05-05 17:04 | 34.71324 | 22.66368 | 38119 ft | 540 kts | 105° |
| 2026-05-05 17:04 | 34.69062 | 22.75073 | 38117 ft | 540 kts | 105° |
| 2026-05-05 17:05 | 34.66796 | 22.83769 | 38116 ft | 540 kts | 105° |
| 2026-05-05 17:05 | 34.64525 | 22.92464 | 38113 ft | 540 kts | 105° |
| 2026-05-05 17:06 | 34.61995 | 23.01051 | 38111 ft | 542 kts | 112° |
| 2026-05-05 17:06 | 34.58645 | 23.09153 | 38110 ft | 542 kts | 116° |
| 2026-05-05 17:07 | 34.55189 | 23.17283 | 38112 ft | 542 kts | 116° |
| 2026-05-05 17:07 | 34.51744 | 23.25423 | 38113 ft | 542 kts | 116° |
| 2026-05-05 17:08 | 34.48292 | 23.33540 | 38113 ft | 542 kts | 116° |
| 2026-05-05 17:08 | 34.44826 | 23.41660 | 38111 ft | 542 kts | 116° |
| 2026-05-05 17:09 | 34.41361 | 23.49758 | 38121 ft | 541 kts | 116° |
| 2026-05-05 17:09 | 34.37895 | 23.57839 | 38110 ft | 540 kts | 116° |
| 2026-05-05 17:10 | 34.34423 | 23.65916 | 38109 ft | 540 kts | 116° |
| 2026-05-05 17:10 | 34.30977 | 23.73915 | 38108 ft | 540 kts | 116° |
| 2026-05-05 17:11 | 34.27500 | 23.81964 | 38118 ft | 539 kts | 116° |
| 2026-05-05 17:11 | 34.24026 | 23.89989 | 38110 ft | 539 kts | 116° |
| 2026-05-05 17:12 | 34.20545 | 23.98012 | 38112 ft | 539 kts | 116° |
| 2026-05-05 17:12 | 34.17062 | 24.06020 | 38107 ft | 538 kts | 116° |
| 2026-05-05 17:13 | 34.13579 | 24.14010 | 38115 ft | 537 kts | 116° |
| 2026-05-05 17:13 | 34.10074 | 24.22031 | 38110 ft | 536 kts | 116° |
| 2026-05-05 17:14 | 34.06594 | 24.29977 | 38103 ft | 536 kts | 116° |
| 2026-05-05 17:14 | 34.03126 | 24.37877 | 38102 ft | 536 kts | 117° |
| 2026-05-05 17:15 | 33.99029 | 24.45354 | 38108 ft | 535 kts | 130° |
| 2026-05-05 17:15 | 33.93801 | 24.51704 | 38103 ft | 533 kts | 140° |
| 2026-05-05 17:16 | 33.88252 | 24.57619 | 38100 ft | 533 kts | 139° |
| 2026-05-05 17:16 | 33.82728 | 24.63559 | 38098 ft | 533 kts | 139° |
| 2026-05-05 17:17 | 33.77196 | 24.69494 | 38096 ft | 533 kts | 139° |
| 2026-05-05 17:17 | 33.71663 | 24.75413 | 38105 ft | 533 kts | 140° |
| 2026-05-05 17:18 | 33.66123 | 24.81329 | 38105 ft | 533 kts | 140° |
| 2026-05-05 17:18 | 33.60584 | 24.87233 | 38102 ft | 533 kts | 140° |
| 2026-05-05 17:19 | 33.55038 | 24.93133 | 38108 ft | 533 kts | 140° |
| 2026-05-05 17:19 | 33.49488 | 24.99028 | 38108 ft | 533 kts | 140° |
| 2026-05-05 17:20 | 33.43973 | 25.04875 | 38107 ft | 533 kts | 140° |
| 2026-05-05 17:20 | 33.38387 | 25.10787 | 38109 ft | 532 kts | 140° |
| 2026-05-05 17:21 | 33.35654 | 25.13675 | 38216 ft | 529 kts | 140° |
| 2026-05-05 17:21 | 33.32920 | 25.16563 | 38655 ft | 521 kts | 140° |
| 2026-05-05 17:22 | 33.24753 | 25.25171 | 38787 ft | 523 kts | 140° |
| 2026-05-05 17:22 | 33.19288 | 25.30918 | 38847 ft | 524 kts | 140° |
| 2026-05-05 17:23 | 33.13816 | 25.36665 | 38926 ft | 524 kts | 140° |
| 2026-05-05 17:23 | 33.08344 | 25.42401 | 38969 ft | 523 kts | 140° |
| 2026-05-05 17:24 | 33.02874 | 25.48124 | 39023 ft | 523 kts | 140° |
| 2026-05-05 17:24 | 32.97397 | 25.53845 | 39053 ft | 524 kts | 140° |
| 2026-05-05 17:25 | 32.91916 | 25.59562 | 39105 ft | 523 kts | 140° |
| 2026-05-05 17:25 | 32.86432 | 25.65271 | 39112 ft | 524 kts | 140° |
| 2026-05-05 17:26 | 32.80934 | 25.70986 | 39121 ft | 525 kts | 140° |
| 2026-05-05 17:26 | 32.75431 | 25.76696 | 39114 ft | 525 kts | 140° |
| 2026-05-05 17:27 | 32.69924 | 25.82399 | 39100 ft | 526 kts | 140° |
| 2026-05-05 17:27 | 32.64405 | 25.88107 | 39096 ft | 526 kts | 140° |
| 2026-05-05 17:28 | 32.59818 | 25.92842 | 39095 ft | 526 kts | 140° |
| 2026-05-05 17:28 | 32.54296 | 25.98534 | 39112 ft | 526 kts | 140° |
| 2026-05-05 17:29 | 32.48772 | 26.04219 | 39096 ft | 526 kts | 141° |
| 2026-05-05 17:29 | 32.43248 | 26.09893 | 39105 ft | 526 kts | 141° |
| 2026-05-05 17:30 | 32.37724 | 26.15559 | 39106 ft | 525 kts | 141° |
| 2026-05-05 17:30 | 32.32219 | 26.21196 | 39095 ft | 525 kts | 141° |
| 2026-05-05 17:31 | 32.26669 | 26.26869 | 39118 ft | 525 kts | 141° |
| 2026-05-05 17:31 | 32.21145 | 26.32508 | 39122 ft | 524 kts | 141° |
| 2026-05-05 17:32 | 32.15621 | 26.38134 | 39123 ft | 524 kts | 141° |
| 2026-05-05 17:32 | 32.10130 | 26.43717 | 39120 ft | 524 kts | 141° |
| 2026-05-05 17:33 | 32.04612 | 26.49323 | 39107 ft | 524 kts | 141° |
| 2026-05-05 17:33 | 31.99084 | 26.54927 | 39110 ft | 524 kts | 141° |
| 2026-05-05 17:34 | 31.93583 | 26.60495 | 39112 ft | 523 kts | 142° |
| 2026-05-05 17:34 | 31.88057 | 26.66078 | 39116 ft | 523 kts | 142° |
| 2026-05-05 17:35 | 31.82533 | 26.71649 | 39115 ft | 523 kts | 142° |
| 2026-05-05 17:35 | 31.77007 | 26.77214 | 39112 ft | 523 kts | 142° |
| 2026-05-05 17:36 | 31.71479 | 26.82773 | 39101 ft | 524 kts | 142° |
| 2026-05-05 17:36 | 31.65936 | 26.88337 | 39110 ft | 524 kts | 142° |
| 2026-05-05 17:37 | 31.60386 | 26.93898 | 39115 ft | 525 kts | 142° |
| 2026-05-05 17:37 | 31.54832 | 26.99454 | 39119 ft | 525 kts | 142° |
| 2026-05-05 17:38 | 31.49270 | 27.05009 | 39126 ft | 525 kts | 142° |
| 2026-05-05 17:38 | 31.43706 | 27.10558 | 39127 ft | 525 kts | 142° |
| 2026-05-05 17:39 | 31.38141 | 27.16101 | 39121 ft | 525 kts | 142° |
| 2026-05-05 17:39 | 31.32711 | 27.21826 | 39140 ft | 528 kts | 135° |
| 2026-05-05 17:40 | 31.28247 | 27.28601 | 39140 ft | 531 kts | 125° |
| 2026-05-05 17:40 | 31.24133 | 27.35778 | 39135 ft | 532 kts | 126° |
| 2026-05-05 17:41 | 31.19993 | 27.42927 | 39131 ft | 532 kts | 126° |
| 2026-05-05 17:41 | 31.15842 | 27.50070 | 39137 ft | 532 kts | 126° |
| 2026-05-05 17:42 | 31.11678 | 27.57200 | 39136 ft | 531 kts | 127° |
| 2026-05-05 17:42 | 31.07451 | 27.64271 | 39131 ft | 531 kts | 127° |
| 2026-05-05 17:43 | 31.03227 | 27.71324 | 39121 ft | 530 kts | 127° |
| 2026-05-05 17:43 | 30.99007 | 27.78375 | 39123 ft | 530 kts | 127° |
| 2026-05-05 17:44 | 30.94783 | 27.85422 | 39125 ft | 530 kts | 127° |
| 2026-05-05 17:44 | 30.90556 | 27.92462 | 39125 ft | 530 kts | 127° |
| 2026-05-05 17:45 | 30.86354 | 27.99448 | 39122 ft | 530 kts | 127° |
| 2026-05-05 17:45 | 30.82120 | 28.06475 | 39126 ft | 530 kts | 127° |
| 2026-05-05 17:46 | 30.77883 | 28.13496 | 39122 ft | 530 kts | 128° |
| 2026-05-05 17:46 | 30.73644 | 28.20506 | 39120 ft | 530 kts | 128° |
| 2026-05-05 17:47 | 30.69399 | 28.27513 | 39120 ft | 530 kts | 128° |
| 2026-05-05 17:47 | 30.65151 | 28.34513 | 39116 ft | 530 kts | 128° |
| 2026-05-05 17:48 | 30.60907 | 28.41498 | 39119 ft | 529 kts | 128° |
| 2026-05-05 17:48 | 30.56663 | 28.48466 | 39116 ft | 528 kts | 128° |
| 2026-05-05 17:49 | 30.52417 | 28.55426 | 39113 ft | 528 kts | 128° |
| 2026-05-05 17:49 | 30.48172 | 28.62371 | 39112 ft | 528 kts | 128° |
| 2026-05-05 17:50 | 30.43918 | 28.69320 | 39109 ft | 528 kts | 128° |
| 2026-05-05 17:50 | 30.39666 | 28.76253 | 39107 ft | 527 kts | 128° |
| 2026-05-05 17:51 | 30.35414 | 28.83174 | 39101 ft | 527 kts | 128° |
| 2026-05-05 17:51 | 30.31166 | 28.90078 | 39100 ft | 527 kts | 128° |
| 2026-05-05 17:52 | 30.26903 | 28.96992 | 39103 ft | 527 kts | 129° |
| 2026-05-05 17:52 | 30.22647 | 29.03886 | 39083 ft | 526 kts | 129° |
| 2026-05-05 17:53 | 30.18403 | 29.10753 | 39102 ft | 525 kts | 129° |
| 2026-05-05 17:53 | 30.14161 | 29.17625 | 39100 ft | 525 kts | 129° |
| 2026-05-05 17:54 | 30.09942 | 29.24509 | 39090 ft | 525 kts | 128° |
| 2026-05-05 17:54 | 30.05776 | 29.31446 | 39093 ft | 525 kts | 128° |
| 2026-05-05 17:55 | 30.01636 | 29.38312 | 39095 ft | 525 kts | 128° |
| 2026-05-05 17:55 | 29.97422 | 29.45271 | 39093 ft | 525 kts | 129° |
| 2026-05-05 17:56 | 29.93241 | 29.52161 | 39090 ft | 525 kts | 129° |
| 2026-05-05 17:56 | 29.89055 | 29.59052 | 39093 ft | 525 kts | 129° |
| 2026-05-05 17:57 | 29.84860 | 29.65939 | 39088 ft | 525 kts | 129° |
| 2026-05-05 17:57 | 29.80667 | 29.72813 | 39084 ft | 525 kts | 129° |
| 2026-05-05 17:58 | 29.76495 | 29.79641 | 39090 ft | 525 kts | 129° |
| 2026-05-05 17:58 | 29.72296 | 29.86507 | 39080 ft | 524 kts | 130° |
| 2026-05-05 17:59 | 29.68094 | 29.93360 | 39084 ft | 524 kts | 130° |
| 2026-05-05 17:59 | 29.63886 | 30.00213 | 39078 ft | 524 kts | 130° |
| 2026-05-05 18:00 | 29.59678 | 30.07056 | 39080 ft | 524 kts | 130° |
| 2026-05-05 18:00 | 29.55469 | 30.13894 | 39075 ft | 524 kts | 130° |
| 2026-05-05 18:01 | 29.51255 | 30.20720 | 39078 ft | 524 kts | 130° |
| 2026-05-05 18:01 | 29.47037 | 30.27541 | 39077 ft | 524 kts | 130° |
| 2026-05-05 18:02 | 29.42817 | 30.34356 | 39080 ft | 524 kts | 130° |
| 2026-05-05 18:02 | 29.38399 | 30.40944 | 39072 ft | 517 kts | 138° |
| 2026-05-05 18:03 | 29.33436 | 30.46853 | 39074 ft | 514 kts | 140° |
| 2026-05-05 18:03 | 29.28478 | 30.52757 | 39085 ft | 514 kts | 140° |
| 2026-05-05 18:04 | 29.23520 | 30.58664 | 39084 ft | 514 kts | 140° |
| 2026-05-05 18:04 | 29.18559 | 30.64566 | 39086 ft | 514 kts | 140° |
| 2026-05-05 18:05 | 29.13592 | 30.70465 | 39089 ft | 514 kts | 140° |
| 2026-05-05 18:05 | 29.08659 | 30.76314 | 39083 ft | 514 kts | 140° |
| 2026-05-05 18:06 | 29.03691 | 30.82197 | 39089 ft | 514 kts | 140° |
| 2026-05-05 18:06 | 28.98728 | 30.88066 | 39093 ft | 513 kts | 140° |
| 2026-05-05 18:07 | 28.93767 | 30.93922 | 39089 ft | 513 kts | 140° |
| 2026-05-05 18:07 | 28.88803 | 30.99775 | 39087 ft | 512 kts | 141° |
| 2026-05-05 18:08 | 28.83843 | 31.05612 | 39091 ft | 512 kts | 141° |
| 2026-05-05 18:08 | 28.78878 | 31.11447 | 39091 ft | 512 kts | 141° |
| 2026-05-05 18:09 | 28.73915 | 31.17273 | 39090 ft | 512 kts | 141° |
| 2026-05-05 18:09 | 28.68953 | 31.23098 | 39066 ft | 513 kts | 140° |
| 2026-05-05 18:10 | 28.64168 | 31.29120 | 39085 ft | 514 kts | 138° |
| 2026-05-05 18:10 | 28.59422 | 31.35179 | 38605 ft | 510 kts | 139° |
| 2026-05-05 18:10 | 28.57053 | 31.38173 | 37973 ft | 507 kts | 139° |
| 2026-05-05 18:11 | 28.54699 | 31.41136 | 37417 ft | 503 kts | 138° |
| 2026-05-05 18:11 | 28.52359 | 31.44074 | 36893 ft | 499 kts | 138° |
| 2026-05-05 18:11 | 28.50042 | 31.46981 | 36324 ft | 496 kts | 138° |
| 2026-05-05 18:11 | 28.47709 | 31.49900 | 35486 ft | 500 kts | 137° |
| 2026-05-05 18:12 | 28.45356 | 31.52839 | 34599 ft | 505 kts | 137° |
| 2026-05-05 18:12 | 28.42999 | 31.55788 | 33953 ft | 503 kts | 137° |
| 2026-05-05 18:12 | 28.40653 | 31.58727 | 33402 ft | 499 kts | 137° |
| 2026-05-05 18:12 | 28.38337 | 31.61627 | 32902 ft | 494 kts | 137° |
| 2026-05-05 18:13 | 28.36035 | 31.64506 | 32365 ft | 490 kts | 137° |
| 2026-05-05 18:13 | 28.33751 | 31.67359 | 31860 ft | 486 kts | 137° |
| 2026-05-05 18:13 | 28.31488 | 31.70183 | 31330 ft | 483 kts | 137° |
| 2026-05-05 18:13 | 28.29236 | 31.72992 | 30879 ft | 477 kts | 137° |
| 2026-05-05 18:14 | 28.27009 | 31.75767 | 30416 ft | 473 kts | 137° |
| 2026-05-05 18:14 | 28.24810 | 31.78506 | 30234 ft | 468 kts | 137° |
| 2026-05-05 18:14 | 28.22642 | 31.81202 | 30119 ft | 471 kts | 137° |
| 2026-05-05 18:15 | 28.18930 | 31.85813 | 30100 ft | 472 kts | 137° |
| 2026-05-05 18:15 | 28.14504 | 31.91309 | 30102 ft | 472 kts | 137° |
| 2026-05-05 18:16 | 28.10072 | 31.96807 | 30103 ft | 472 kts | 137° |
| 2026-05-05 18:16 | 28.05691 | 32.02368 | 30101 ft | 481 kts | 131° |
| 2026-05-05 18:16 | 28.03914 | 32.05647 | 30105 ft | 497 kts | 119° |
| 2026-05-05 18:17 | 28.02673 | 32.09345 | 30087 ft | 510 kts | 107° |
| 2026-05-05 18:17 | 28.02033 | 32.13338 | 30089 ft | 522 kts | 96° |
| 2026-05-05 18:17 | 28.02035 | 32.17474 | 30092 ft | 530 kts | 85° |
| 2026-05-05 18:18 | 28.02828 | 32.25800 | 30016 ft | 533 kts | 86° |
| 2026-05-05 18:18 | 28.03040 | 32.29982 | 29387 ft | 532 kts | 89° |
| 2026-05-05 18:18 | 28.03111 | 32.34166 | 28538 ft | 531 kts | 90° |
| 2026-05-05 18:18 | 28.03102 | 32.38330 | 27848 ft | 526 kts | 91° |
| 2026-05-05 18:19 | 28.03063 | 32.42442 | 27292 ft | 519 kts | 91° |
| 2026-05-05 18:19 | 28.03016 | 32.46506 | 27101 ft | 517 kts | 91° |
| 2026-05-05 18:19 | 28.02969 | 32.50597 | 27050 ft | 522 kts | 91° |
| 2026-05-05 18:19 | 28.02924 | 32.54705 | 27037 ft | 521 kts | 91° |
| 2026-05-05 18:20 | 28.02880 | 32.58802 | 27037 ft | 521 kts | 91° |
| 2026-05-05 18:20 | 28.02836 | 32.62907 | 27039 ft | 522 kts | 91° |
| 2026-05-05 18:20 | 28.02792 | 32.67028 | 27037 ft | 526 kts | 91° |
| 2026-05-05 18:20 | 28.02746 | 32.71158 | 27037 ft | 524 kts | 91° |
| 2026-05-05 18:21 | 28.02698 | 32.75281 | 27033 ft | 524 kts | 91° |
| 2026-05-05 18:21 | 28.02650 | 32.79387 | 27036 ft | 524 kts | 91° |
| 2026-05-05 18:21 | 28.02599 | 32.83530 | 27040 ft | 525 kts | 91° |
| 2026-05-05 18:21 | 28.02548 | 32.87665 | 27024 ft | 524 kts | 91° |
| 2026-05-05 18:22 | 28.02496 | 32.91785 | 27029 ft | 525 kts | 92° |
| 2026-05-05 18:22 | 28.02442 | 32.95911 | 27026 ft | 525 kts | 92° |
| 2026-05-05 18:22 | 28.02387 | 33.00045 | 27024 ft | 525 kts | 92° |
| 2026-05-05 18:22 | 28.02295 | 33.04116 | 27019 ft | 524 kts | 96° |
| 2026-05-05 18:23 | 28.01704 | 33.08174 | 27019 ft | 521 kts | 107° |
| 2026-05-05 18:23 | 28.00488 | 33.12016 | 27020 ft | 517 kts | 118° |
| 2026-05-05 18:23 | 27.98695 | 33.15505 | 27020 ft | 511 kts | 130° |
| 2026-05-05 18:23 | 27.96398 | 33.18519 | 27009 ft | 502 kts | 141° |
| 2026-05-05 18:24 | 27.93689 | 33.20952 | 27009 ft | 494 kts | 153° |
| 2026-05-05 18:24 | 27.90689 | 33.22767 | 26994 ft | 487 kts | 161° |
| 2026-05-05 18:24 | 27.87631 | 33.24401 | 26873 ft | 485 kts | 159° |
| 2026-05-05 18:24 | 27.84661 | 33.26214 | 26373 ft | 486 kts | 155° |
| 2026-05-05 18:25 | 27.81795 | 33.28238 | 25746 ft | 486 kts | 152° |
| 2026-05-05 18:25 | 27.79907 | 33.29680 | 25343 ft | 484 kts | 150° |
| 2026-05-05 18:25 | 27.76276 | 33.32581 | 24400 ft | 480 kts | 149° |
| 2026-05-05 18:25 | 27.73575 | 33.34775 | 23709 ft | 477 kts | 149° |
| 2026-05-05 18:26 | 27.70891 | 33.36957 | 22962 ft | 473 kts | 149° |
| 2026-05-05 18:26 | 27.68233 | 33.39113 | 22286 ft | 467 kts | 149° |
| 2026-05-05 18:26 | 27.65605 | 33.41241 | 21586 ft | 462 kts | 149° |
| 2026-05-05 18:26 | 27.63014 | 33.43336 | 20911 ft | 457 kts | 149° |
| 2026-05-05 18:27 | 27.60436 | 33.45415 | 20241 ft | 452 kts | 149° |
| 2026-05-05 18:27 | 27.57902 | 33.47458 | 19771 ft | 440 kts | 149° |
| 2026-05-05 18:27 | 27.55483 | 33.49414 | 19513 ft | 416 kts | 149° |
| 2026-05-05 18:27 | 27.53204 | 33.51254 | 19284 ft | 393 kts | 150° |
| 2026-05-05 18:28 | 27.48685 | 33.53938 | 18902 ft | 344 kts | 163° |
| 2026-05-05 18:28 | 27.46538 | 33.54962 | 18750 ft | 326 kts | 163° |
| 2026-05-05 18:28 | 27.44506 | 33.55946 | 18614 ft | 310 kts | 163° |
| 2026-05-05 18:29 | 27.42580 | 33.56884 | 18501 ft | 294 kts | 163° |
| 2026-05-05 18:29 | 27.40730 | 33.57783 | 18134 ft | 288 kts | 163° |
| 2026-05-05 18:29 | 27.38889 | 33.58671 | 17624 ft | 286 kts | 163° |
| 2026-05-05 18:29 | 27.37066 | 33.59551 | 17125 ft | 285 kts | 163° |
| 2026-05-05 18:30 | 27.35246 | 33.60392 | 16641 ft | 280 kts | 168° |
| 2026-05-05 18:30 | 27.33385 | 33.60959 | 16150 ft | 275 kts | 172° |
| 2026-05-05 18:30 | 27.31536 | 33.61488 | 15668 ft | 274 kts | 172° |
| 2026-05-05 18:30 | 27.29694 | 33.62025 | 15177 ft | 272 kts | 171° |
| 2026-05-05 18:31 | 27.27875 | 33.62562 | 14709 ft | 270 kts | 171° |
| 2026-05-05 18:31 | 27.26062 | 33.63101 | 14224 ft | 269 kts | 171° |
| 2026-05-05 18:31 | 27.24263 | 33.63637 | 13768 ft | 267 kts | 171° |
| 2026-05-05 18:31 | 27.22474 | 33.64170 | 13236 ft | 265 kts | 170° |
| 2026-05-05 18:32 | 27.20697 | 33.64699 | 12709 ft | 263 kts | 170° |
| 2026-05-05 18:32 | 27.18929 | 33.65225 | 12178 ft | 262 kts | 170° |
| 2026-05-05 18:32 | 27.17175 | 33.65746 | 11677 ft | 260 kts | 170° |
| 2026-05-05 18:32 | 27.15426 | 33.66266 | 11186 ft | 259 kts | 170° |
| 2026-05-05 18:33 | 27.13691 | 33.66780 | 10710 ft | 258 kts | 170° |
| 2026-05-05 18:33 | 27.11960 | 33.67293 | 10246 ft | 256 kts | 170° |
| 2026-05-05 18:33 | 27.10265 | 33.67795 | 9788 ft | 255 kts | 169° |
| 2026-05-05 18:33 | 27.08554 | 33.68301 | 9313 ft | 253 kts | 169° |
| 2026-05-05 18:34 | 27.06860 | 33.68804 | 8885 ft | 251 kts | 169° |
| 2026-05-05 18:34 | 27.05177 | 33.69304 | 8378 ft | 250 kts | 170° |
| 2026-05-05 18:34 | 27.03496 | 33.69801 | 7902 ft | 250 kts | 169° |
| 2026-05-05 18:34 | 27.01827 | 33.70294 | 7506 ft | 246 kts | 169° |
| 2026-05-05 18:35 | 27.00175 | 33.70783 | 7074 ft | 245 kts | 169° |
| 2026-05-05 18:35 | 26.98535 | 33.71269 | 6646 ft | 244 kts | 168° |
| 2026-05-05 18:35 | 26.96897 | 33.71753 | 6242 ft | 240 kts | 168° |
| 2026-05-05 18:35 | 26.95339 | 33.72216 | 6077 ft | 223 kts | 168° |
| 2026-05-05 18:36 | 26.93887 | 33.72658 | 5927 ft | 211 kts | 166° |
| 2026-05-05 18:36 | 26.92648 | 33.73507 | 5654 ft | 210 kts | 134° |
| 2026-05-05 18:36 | 26.91979 | 33.74926 | 5235 ft | 208 kts | 100° |
| 2026-05-05 18:36 | 26.92083 | 33.76505 | 4789 ft | 203 kts | 64° |
| 2026-05-05 18:37 | 26.92919 | 33.77704 | 4395 ft | 193 kts | 29° |
| 2026-05-05 18:37 | 26.94088 | 33.78313 | 4267 ft | 179 kts | 16° |
| 2026-05-05 18:37 | 26.95211 | 33.78800 | 4138 ft | 169 kts | 20° |
| 2026-05-05 18:37 | 26.96227 | 33.79403 | 4032 ft | 164 kts | 27° |
| 2026-05-05 18:38 | 26.97197 | 33.80156 | 4006 ft | 172 kts | 33° |
| 2026-05-05 18:38 | 26.98110 | 33.81000 | 3915 ft | 167 kts | 37° |
| 2026-05-05 18:38 | 26.98954 | 33.81856 | 3649 ft | 162 kts | 38° |
| 2026-05-05 18:38 | 26.99818 | 33.82666 | 3213 ft | 160 kts | 25° |
| 2026-05-05 18:39 | 27.00816 | 33.82999 | 3012 ft | 145 kts | 4° |
| 2026-05-05 18:39 | 27.01820 | 33.83165 | 2810 ft | 148 kts | 1° |
| 2026-05-05 18:39 | 27.02834 | 33.83256 | 2630 ft | 142 kts | 357° |
| 2026-05-05 18:39 | 27.03814 | 33.83279 | 2452 ft | 143 kts | 355° |
| 2026-05-05 18:40 | 27.04805 | 33.83246 | 2265 ft | 141 kts | 352° |
| 2026-05-05 18:40 | 27.05807 | 33.83160 | 2094 ft | 148 kts | 349° |
| 2026-05-05 18:40 | 27.06801 | 33.83022 | 2028 ft | 140 kts | 347° |
| 2026-05-05 18:40 | 27.07795 | 33.82843 | 2028 ft | 146 kts | 347° |
| 2026-05-05 18:41 | 27.08779 | 33.82642 | 1800 ft | 145 kts | 346° |
| 2026-05-05 18:41 | 27.09800 | 33.82417 | 1345 ft | 149 kts | 345° |
| 2026-05-05 18:41 | 27.10773 | 33.82169 | 1071 ft | 136 kts | 344° |
| 2026-05-05 18:41 | 27.11727 | 33.81923 | 965 ft | 147 kts | 343° |
| 2026-05-05 18:42 | 27.12712 | 33.81642 | 809 ft | 148 kts | 340° |
| 2026-05-05 18:42 | 27.13698 | 33.81345 | 550 ft | 146 kts | 340° |
| 2026-05-05 18:42 | 27.14709 | 33.81044 | 387 ft | 153 kts | 341° |
| 2026-05-05 18:42 | 27.15731 | 33.80707 | 237 ft | 153 kts | 342° |
| 2026-05-05 18:43 | 27.16733 | 33.80438 | 51 ft | 140 kts | 340° |
| 2026-05-05 18:43 | 27.17541 | 33.80168 | 54 ft | 82 kts | 347° |
| 2026-05-05 18:43 | 27.17856 | 33.80089 | 56 ft | 36 kts | 347° |
| 2026-05-05 18:43 | 27.18091 | 33.80028 | 53 ft | 34 kts | 347° |
| 2026-05-05 18:44 | 27.18316 | 33.79960 | 49 ft | 34 kts | 345° |
| 2026-05-05 18:44 | 27.18468 | 33.80016 | 47 ft | 15 kts | 67° |
| 2026-05-05 18:44 | 27.18449 | 33.80081 | 48 ft | 8 kts | 125° |
| 2026-05-05 18:44 | 27.18414 | 33.80105 | 50 ft | 4 kts | 159° |
| 2026-05-05 18:45 | 27.18402 | 33.80109 | 53 ft | 2 kts | 160° |
| 2026-05-05 18:45 | 27.18347 | 33.80129 | 51 ft | 10 kts | 162° |
| 2026-05-05 18:45 | 27.18289 | 33.80150 | 51 ft | 8 kts | 163° |
| 2026-05-05 18:45 | 27.18240 | 33.80165 | 51 ft | 8 kts | 164° |
| 2026-05-05 18:46 | 27.18190 | 33.80225 | 57 ft | 14 kts | 92° |
| 2026-05-05 18:46 | 27.18208 | 33.80363 | 59 ft | 18 kts | 82° |
| 2026-05-05 18:46 | 27.18152 | 33.80449 | 57 ft | 19 kts | 158° |
| 2026-05-05 18:46 | 27.17983 | 33.80490 | 63 ft | 31 kts | 169° |
| 2026-05-05 18:47 | 27.17772 | 33.80546 | 56 ft | 30 kts | 165° |
| 2026-05-05 18:47 | 27.17616 | 33.80620 | 59 ft | 13 kts | 129° |
| 2026-05-05 18:47 | 27.17623 | 33.80664 | 56 ft | 14 kts | 68° |
| 2026-05-05 18:47 | 27.17634 | 33.80690 | 55 ft | 1 kts | 71° |
| 2026-05-05 18:48 | 27.17634 | 33.80697 | 57 ft | 0 kts | 83° |